Time;durP1;ratioP1;P1;durP2;ratioP2;P2;SDS_P1;SDS_P2;PMS_P1;PMS_P2;Temp;Humidity;BMP_temperature;BMP_pressure;BME280_temperature;BME280_humidity;BME280_pressure;Samples;Min_cycle;Max_cycle;Signal;HPM_P1;HPM_P2
2022/04/11 00:02:20;;;;;;;8.00;4.40;;;;;;;3.20;68.47;100607.11;112919;1234;22961;-79
2022/04/11 00:04:48;;;;;;;8.00;4.60;;;;;;;3.17;68.57;100605.60;112498;1234;22012;-79
2022/04/11 00:07:18;;;;;;;9.10;4.80;;;;;;;3.13;68.57;100610.43;112815;1233;21948;-79
2022/04/11 00:09:46;;;;;;;6.30;3.80;;;;;;;3.08;68.59;100614.80;112830;1233;23562;-79
2022/04/11 00:12:16;;;;;;;9.80;4.60;;;;;;;3.03;68.76;100612.05;112952;1234;21947;-78
2022/04/11 00:14:47;;;;;;;8.10;4.00;;;;;;;2.97;68.82;100612.25;112923;1234;23561;-79
2022/04/11 00:17:14;;;;;;;7.90;4.50;;;;;;;2.93;69.02;100610.65;112951;1233;21939;-79
2022/04/11 00:19:42;;;;;;;6.60;4.30;;;;;;;2.91;69.23;100612.55;112803;1236;21986;-79
2022/04/11 00:22:10;;;;;;;10.20;4.90;;;;;;;2.91;69.45;100613.08;112451;1234;23072;-78
2022/04/11 00:24:39;;;;;;;8.10;4.50;;;;;;;2.92;69.52;100614.79;112808;1234;23847;-79
2022/04/11 00:27:07;;;;;;;7.10;4.50;;;;;;;2.93;69.70;100618.84;112869;1234;21990;-79
2022/04/11 00:29:36;;;;;;;9.90;4.30;;;;;;;2.95;69.79;100620.95;111897;1239;23137;-79
2022/04/11 00:32:07;;;;;;;6.50;4.00;;;;;;;2.97;69.84;100620.65;111793;1239;23722;-78
2022/04/11 00:34:38;;;;;;;8.90;4.80;;;;;;;2.99;69.97;100625.86;111995;1238;22757;-78
2022/04/11 00:37:05;;;;;;;7.90;5.00;;;;;;;3.02;70.06;100625.51;111705;1239;21967;-79
2022/04/11 00:39:36;;;;;;;11.40;5.00;;;;;;;3.06;70.20;100631.11;111750;1240;21910;-78
2022/04/11 00:42:13;;;;;;;8.50;5.60;;;;;;;3.09;70.12;100633.16;111585;1240;21945;-79
2022/04/11 00:44:41;;;;;;;10.50;5.60;;;;;;;3.09;70.05;100630.88;111775;1239;23026;-77
2022/04/11 00:47:09;;;;;;;8.30;5.60;;;;;;;3.09;70.00;100628.64;112224;1235;23767;-77
2022/04/11 00:49:39;;;;;;;8.70;4.90;;;;;;;3.08;69.94;100636.35;112961;1232;21939;-79
2022/04/11 00:52:11;;;;;;;9.00;5.40;;;;;;;3.06;69.81;100641.90;113019;1233;24074;-77
2022/04/11 00:54:41;;;;;;;10.80;5.60;;;;;;;3.04;69.91;100647.77;112848;1234;21969;-78
2022/04/11 00:57:10;;;;;;;8.70;6.00;;;;;;;3.02;69.79;100651.95;112754;1234;23731;-78
2022/04/11 00:59:41;;;;;;;10.50;5.00;;;;;;;2.96;69.65;100651.12;112807;1234;21947;-78
2022/04/11 01:02:12;;;;;;;11.20;6.20;;;;;;;2.91;69.75;100650.66;112811;1233;21957;-78
2022/04/11 01:04:41;;;;;;;9.00;5.40;;;;;;;2.86;69.90;100653.26;112476;1234;23577;-79
2022/04/11 01:07:20;;;;;;;8.30;5.20;;;;;;;2.83;69.80;100657.11;112855;1234;21962;-79
2022/04/11 01:09:50;;;;;;;8.60;5.00;;;;;;;2.79;69.93;100656.34;112766;1234;21948;-78
2022/04/11 01:12:22;;;;;;;11.60;6.30;;;;;;;2.76;69.97;100654.35;112428;1233;22017;-81
2022/04/11 01:14:50;;;;;;;10.80;6.50;;;;;;;2.74;70.09;100659.04;112445;1234;22009;-80
2022/04/11 01:17:32;;;;;;;13.50;6.30;;;;;;;2.71;70.07;100658.73;112881;1234;23681;-80
2022/04/11 01:20:19;;;;;;;13.70;7.50;;;;;;;2.69;70.14;100660.98;112357;1233;21959;-80
2022/04/11 01:22:51;;;;;;;10.70;6.00;;;;;;;2.66;70.19;100663.27;112501;1235;23015;-79
2022/04/11 01:25:21;;;;;;;10.40;5.60;;;;;;;2.65;70.33;100665.57;112790;1234;22944;-79
2022/04/11 01:27:50;;;;;;;10.80;5.90;;;;;;;2.65;70.35;100659.98;112132;1239;23669;-80
2022/04/11 01:30:18;;;;;;;8.00;5.60;;;;;;;2.66;70.35;100659.23;112201;1239;23658;-80
2022/04/11 01:32:48;;;;;;;8.80;5.80;;;;;;;2.66;70.28;100665.70;111812;1239;21971;-79
2022/04/11 01:35:25;;;;;;;11.00;5.70;;;;;;;2.62;70.14;100666.80;111958;1240;23043;-79
2022/04/11 01:38:01;;;;;;;11.50;5.20;;;;;;;2.58;70.26;100665.84;111988;1239;22948;-79
2022/04/11 01:40:29;;;;;;;6.80;4.90;;;;;;;2.58;70.34;100667.29;111879;1238;21993;-78
2022/04/11 01:42:57;;;;;;;10.20;5.60;;;;;;;2.57;70.28;100668.58;112048;1239;22368;-79
2022/04/11 01:45:25;;;;;;;7.70;5.40;;;;;;;2.55;70.33;100670.82;112104;1234;23031;-79
2022/04/11 01:47:53;;;;;;;8.00;5.00;;;;;;;2.54;70.41;100671.55;112446;1234;21978;-79
2022/04/11 01:50:21;;;;;;;12.20;6.20;;;;;;;2.52;70.33;100673.44;112767;1234;21951;-79
2022/04/11 01:52:49;;;;;;;9.00;5.50;;;;;;;2.49;70.34;100671.90;112433;1234;23558;-80
2022/04/11 01:55:19;;;;;;;11.20;5.50;;;;;;;2.47;70.35;100669.80;112451;1234;21950;-80
2022/04/11 01:57:49;;;;;;;9.10;5.30;;;;;;;2.44;70.27;100673.66;112584;1234;21921;-80
2022/04/11 02:00:17;;;;;;;9.00;5.30;;;;;;;2.42;70.28;100679.77;112300;1234;22622;-78
2022/04/11 02:02:46;;;;;;;10.20;5.40;;;;;;;2.39;70.32;100683.60;112754;1234;23138;-79
2022/04/11 02:05:14;;;;;;;11.30;5.10;;;;;;;2.35;70.33;100685.59;112863;1234;23047;-78
2022/04/11 02:07:51;;;;;;;11.10;6.00;;;;;;;2.32;70.37;100686.13;112894;1234;21956;-79
2022/04/11 02:10:21;;;;;;;8.30;5.80;;;;;;;2.29;70.45;100686.33;112391;1234;23549;-78
2022/04/11 02:12:50;;;;;;;6.90;5.10;;;;;;;2.27;70.47;100686.95;112855;1233;21990;-79
2022/04/11 02:15:18;;;;;;;8.50;5.10;;;;;;;2.25;70.47;100686.62;112403;1234;23555;-79
2022/04/11 02:17:46;;;;;;;11.70;5.50;;;;;;;2.21;70.47;100691.92;112533;1235;21963;-80
2022/04/11 02:20:15;;;;;;;8.40;5.10;;;;;;;2.18;70.51;100696.83;112982;1234;23732;-79
2022/04/11 02:22:44;;;;;;;8.20;5.50;;;;;;;2.14;70.57;100699.71;112460;1234;22749;-79
2022/04/11 02:25:15;;;;;;;8.70;5.50;;;;;;;2.10;70.47;100700.15;112391;1235;22720;-79
2022/04/11 02:27:44;;;;;;;10.00;6.20;;;;;;;2.07;70.71;100704.20;113044;1234;22181;-79
2022/04/11 02:30:14;;;;;;;14.40;7.40;;;;;;;2.05;70.80;100707.07;112425;1234;22724;-79
2022/04/11 02:32:45;;;;;;;19.90;7.00;;;;;;;2.06;70.84;100707.40;112855;1234;22056;-78
2022/04/11 02:35:18;;;;;;;10.80;6.00;;;;;;;2.05;70.95;100708.30;112938;1234;23673;-78
2022/04/11 02:37:47;;;;;;;11.00;6.00;;;;;;;2.04;70.82;100709.05;112899;1234;23615;-78
2022/04/11 02:40:16;;;;;;;11.30;5.70;;;;;;;2.05;71.04;100709.38;112475;1235;21950;-78
2022/04/11 02:42:54;;;;;;;14.30;7.50;;;;;;;2.08;71.18;100703.56;112249;1234;21965;-79
2022/04/11 02:45:21;;;;;;;17.50;9.40;;;;;;;2.13;71.35;100703.43;112449;1234;22878;-79
2022/04/11 02:47:55;;;;;;;19.20;11.80;;;;;;;2.19;71.41;100694.68;112385;1234;23568;-79
2022/04/11 02:50:28;;;;;;;19.60;13.50;;;;;;;2.24;71.30;100695.00;112409;1235;21998;-79
2022/04/11 02:53:05;;;;;;;18.70;12.10;;;;;;;2.28;71.32;100694.42;112549;1235;23091;-79
2022/04/11 02:55:33;;;;;;;17.50;10.50;;;;;;;2.31;71.28;100695.60;112546;1235;21948;-79
2022/04/11 02:58:01;;;;;;;12.60;7.80;;;;;;;2.34;71.31;100695.70;112850;1234;22444;-80
2022/04/11 03:00:31;;;;;;;12.80;6.70;;;;;;;2.37;71.25;100700.54;112981;1234;21957;-80
2022/04/11 03:03:00;;;;;;;12.30;7.70;;;;;;;2.41;71.31;100702.91;112391;1235;22880;-79
2022/04/11 03:05:37;;;;;;;14.70;8.30;;;;;;;2.43;71.24;100707.44;112272;1234;21954;-80
2022/04/11 03:08:07;;;;;;;13.90;7.30;;;;;;;2.44;71.08;100704.59;112052;1239;22141;-80
2022/04/11 03:10:36;;;;;;;16.80;7.60;;;;;;;2.46;71.26;100705.68;112077;1238;23585;-81
2022/04/11 03:13:08;;;;;;;12.50;5.50;;;;;;;2.49;71.34;100706.68;111800;1237;21964;-81
2022/04/11 03:15:41;;;;;;;11.70;6.60;;;;;;;2.54;71.38;100708.94;111401;1242;23589;-79
2022/04/11 03:18:09;;;;;;;19.70;6.70;;;;;;;2.58;71.33;100709.18;111171;1245;23579;-80
2022/04/11 03:20:41;;;;;;;11.80;7.60;;;;;;;2.60;71.33;100707.69;111640;1243;22992;-78
2022/04/11 03:23:09;;;;;;;13.50;8.10;;;;;;;2.60;71.21;100708.31;111334;1245;22165;-80
2022/04/11 03:25:39;;;;;;;13.80;6.20;;;;;;;2.58;70.95;100706.04;111420;1239;23878;-78
2022/04/11 03:28:07;;;;;;;10.40;5.20;;;;;;;2.55;70.80;100714.26;112066;1239;21949;-78
2022/04/11 03:30:42;;;;;;;11.40;5.50;;;;;;;2.51;70.78;100718.38;111593;1244;23726;-80
2022/04/11 03:33:14;;;;;;;8.00;5.30;;;;;;;2.47;70.88;100714.98;111581;1241;21957;-79
2022/04/11 03:35:43;;;;;;;11.30;5.90;;;;;;;2.47;70.91;100716.70;111939;1240;23112;-80
2022/04/11 03:38:12;;;;;;;11.10;5.70;;;;;;;2.47;70.91;100721.75;112079;1239;23126;-81
2022/04/11 03:40:40;;;;;;;10.90;5.90;;;;;;;2.48;71.06;100723.05;112007;1239;22011;-78
2022/04/11 03:43:11;;;;;;;10.20;5.30;;;;;;;2.49;71.00;100725.65;111984;1239;22015;-78
2022/04/11 03:45:40;;;;;;;9.50;5.00;;;;;;;2.48;70.96;100725.52;112136;1239;23766;-78
2022/04/11 03:48:13;;;;;;;8.70;5.50;;;;;;;2.48;71.05;100725.87;111840;1239;22118;-79
2022/04/11 03:50:43;;;;;;;8.30;5.10;;;;;;;2.50;71.13;100727.33;112001;1239;22842;-80
2022/04/11 03:53:11;;;;;;;10.20;5.10;;;;;;;2.53;71.25;100724.86;111580;1240;23053;-79
2022/04/11 03:55:40;;;;;;;8.20;4.80;;;;;;;2.56;71.31;100719.41;112366;1235;22837;-79
2022/04/11 03:58:09;;;;;;;9.00;5.30;;;;;;;2.57;71.21;100718.61;112729;1235;21960;-79
2022/04/11 04:00:42;;;;;;;7.20;4.90;;;;;;;2.60;71.24;100719.65;111763;1238;21960;-79
2022/04/11 04:03:17;;;;;;;10.60;5.80;;;;;;;2.62;71.18;100720.16;112027;1237;22010;-79
2022/04/11 04:05:55;;;;;;;10.40;5.30;;;;;;;2.64;71.28;100723.69;112318;1238;23982;-79
2022/04/11 04:08:26;;;;;;;9.40;6.20;;;;;;;2.65;71.18;100724.33;111820;1239;22211;-79
2022/04/11 04:11:07;;;;;;;11.90;6.30;;;;;;;2.66;71.31;100728.10;111899;1239;23572;-79
2022/04/11 04:13:43;;;;;;;9.40;6.00;;;;;;;2.70;71.67;100729.90;112127;1238;22820;-79
2022/04/11 04:16:19;;;;;;;12.00;6.80;;;;;;;2.76;71.79;100730.14;112243;1238;21952;-78
2022/04/11 04:19:00;;;;;;;9.30;6.70;;;;;;;2.77;71.53;100732.52;111730;1238;21961;-79
2022/04/11 04:21:28;;;;;;;12.30;7.00;;;;;;;2.74;71.46;100735.52;112370;1238;23497;-79
2022/04/11 04:23:59;;;;;;;12.10;6.90;;;;;;;2.70;71.44;100734.92;112064;1239;22431;-79
2022/04/11 04:26:27;;;;;;;13.00;7.80;;;;;;;2.68;71.41;100736.64;112036;1239;22961;-79
2022/04/11 04:28:55;;;;;;;15.00;7.60;;;;;;;2.68;71.47;100738.38;111925;1240;23039;-79
2022/04/11 04:31:26;;;;;;;13.60;8.20;;;;;;;2.69;71.50;100742.51;111936;1239;23079;-78
2022/04/11 04:33:54;;;;;;;12.20;7.10;;;;;;;2.69;71.48;100742.34;111718;1242;22234;-79
2022/04/11 04:36:23;;;;;;;15.80;8.20;;;;;;;2.68;71.45;100742.42;111688;1236;21957;-78
2022/04/11 04:38:51;;;;;;;11.00;7.90;;;;;;;2.67;71.67;100745.57;112882;1234;21957;-78
2022/04/11 04:41:19;;;;;;;13.60;9.40;;;;;;;2.68;71.81;100742.23;112761;1235;21987;-77
2022/04/11 04:43:47;;;;;;;11.90;7.90;;;;;;;2.69;71.88;100741.46;112388;1235;23687;-79
2022/04/11 04:46:16;;;;;;;13.30;8.00;;;;;;;2.70;71.78;100742.09;112283;1235;23681;-77
2022/04/11 04:48:51;;;;;;;13.60;8.30;;;;;;;2.73;72.09;100746.23;112770;1235;22371;-78
2022/04/11 04:51:20;;;;;;;13.50;8.50;;;;;;;2.84;72.71;100748.95;112800;1234;22014;-78
2022/04/11 04:53:54;;;;;;;14.60;7.90;;;;;;;3.01;73.23;100751.54;112946;1234;23752;-79
2022/04/11 04:56:22;;;;;;;11.80;8.00;;;;;;;3.17;73.26;100752.10;112329;1234;23720;-78
2022/04/11 04:58:51;;;;;;;16.40;9.60;;;;;;;3.34;73.45;100753.19;112824;1234;21964;-79
2022/04/11 05:01:19;;;;;;;20.40;13.10;;;;;;;3.52;73.54;100754.47;112939;1234;22000;-78
2022/04/11 05:03:50;;;;;;;25.20;14.40;;;;;;;3.77;73.86;100753.33;111976;1238;23199;-78
2022/04/11 05:06:22;;;;;;;14.10;9.80;;;;;;;4.01;73.68;100749.25;112130;1237;21953;-78
2022/04/11 05:08:50;;;;;;;15.60;8.30;;;;;;;4.30;73.82;100753.69;112349;1237;22198;-78
2022/04/11 05:11:20;;;;;;;12.60;8.50;;;;;;;4.59;73.44;100759.46;111798;1237;23086;-77
2022/04/11 05:13:50;;;;;;;14.50;8.10;;;;;;;4.85;73.12;100761.77;112280;1237;21959;-78
2022/04/11 05:16:24;;;;;;;12.90;7.50;;;;;;;5.08;72.34;100766.08;112323;1237;24348;-78
2022/04/11 05:18:53;;;;;;;10.70;8.00;;;;;;;5.28;71.81;100768.46;112212;1238;21962;-79
2022/04/11 05:21:21;;;;;;;13.50;9.00;;;;;;;5.42;70.88;100770.33;112159;1234;23125;-79
2022/04/11 05:23:49;;;;;;;11.20;7.90;;;;;;;5.48;70.09;100773.17;112588;1234;23681;-79
2022/04/11 05:26:18;;;;;;;13.30;8.00;;;;;;;5.50;69.47;100769.50;112212;1235;22447;-80
2022/04/11 05:28:50;;;;;;;18.20;10.00;;;;;;;5.47;68.82;100773.40;112677;1234;22201;-80
2022/04/11 05:31:21;;;;;;;17.00;9.10;;;;;;;5.49;68.61;100778.70;111764;1241;21963;-79
2022/04/11 05:33:53;;;;;;;15.70;10.30;;;;;;;5.50;68.24;100778.95;111782;1239;22763;-78
2022/04/11 05:36:21;;;;;;;13.40;9.50;;;;;;;5.46;67.84;100774.88;111836;1240;23365;-79
2022/04/11 05:38:49;;;;;;;18.60;12.40;;;;;;;5.42;67.64;100772.56;111772;1239;21955;-79
2022/04/11 05:41:20;;;;;;;17.10;12.90;;;;;;;5.46;68.04;100776.08;111909;1241;21959;-79
2022/04/11 05:43:50;;;;;;;14.60;10.60;;;;;;;5.58;68.27;100773.36;111371;1243;23752;-79
2022/04/11 05:46:21;;;;;;;18.70;10.10;;;;;;;5.64;67.78;100775.15;111521;1245;21963;-79
2022/04/11 05:49:04;;;;;;;15.30;8.10;;;;;;;5.67;67.63;100778.42;111484;1241;22724;-79
2022/04/11 05:51:36;;;;;;;14.80;7.90;;;;;;;5.74;67.57;100778.54;111889;1239;23098;-80
2022/04/11 05:54:04;;;;;;;13.00;7.50;;;;;;;5.84;67.77;100782.23;111736;1241;22009;-78
2022/04/11 05:56:33;;;;;;;9.80;6.30;;;;;;;5.98;67.81;100785.01;111577;1241;23809;-79
2022/04/11 05:59:04;;;;;;;10.80;5.50;;;;;;;6.06;67.26;100789.38;111873;1240;21991;-78
2022/04/11 06:01:35;;;;;;;12.70;6.00;;;;;;;6.09;66.89;100789.61;111776;1235;21970;-78
2022/04/11 06:04:05;;;;;;;14.90;6.40;;;;;;;6.10;66.52;100791.80;112824;1235;22735;-80
2022/04/11 06:06:35;;;;;;;23.90;6.60;;;;;;;6.08;66.15;100794.45;112161;1237;21963;-80
2022/04/11 06:09:04;;;;;;;8.30;5.30;;;;;;;6.02;65.84;100793.74;112442;1234;21946;-77
2022/04/11 06:11:33;;;;;;;10.20;5.90;;;;;;;5.92;65.53;100796.11;112830;1235;21909;-79
2022/04/11 06:14:01;;;;;;;10.90;6.20;;;;;;;5.83;65.58;100793.02;112774;1234;21972;-79
2022/04/11 06:16:29;;;;;;;12.70;11.20;;;;;;;5.76;65.81;100796.73;112751;1234;23562;-80
2022/04/11 06:18:58;;;;;;;9.50;5.70;;;;;;;5.74;66.12;100798.79;112430;1236;22412;-80
2022/04/11 06:21:27;;;;;;;9.70;5.50;;;;;;;5.77;66.04;100799.67;112471;1235;21961;-80
2022/04/11 06:23:55;;;;;;;9.30;5.20;;;;;;;5.73;65.90;100798.55;112642;1235;21957;-80
2022/04/11 06:26:25;;;;;;;10.40;5.50;;;;;;;5.69;65.86;100798.73;112721;1235;22191;-81
2022/04/11 06:28:53;;;;;;;11.10;8.50;;;;;;;5.67;65.98;100800.83;112725;1234;23710;-80
2022/04/11 06:31:21;;;;;;;9.50;5.50;;;;;;;5.71;66.27;100801.32;112437;1235;22828;-80
2022/04/11 06:33:53;;;;;;;11.80;6.50;;;;;;;5.76;66.20;100807.75;112720;1235;22124;-80
2022/04/11 06:36:25;;;;;;;14.20;6.40;;;;;;;5.80;66.34;100805.14;111370;1244;23061;-80
2022/04/11 06:38:53;;;;;;;13.70;7.00;;;;;;;5.88;66.59;100806.73;111740;1240;23080;-80
2022/04/11 06:41:28;;;;;;;11.10;5.40;;;;;;;6.01;67.00;100810.10;111673;1242;22031;-80
2022/04/11 06:43:57;;;;;;;10.70;7.30;;;;;;;6.08;66.42;100814.37;111786;1243;22192;-80
2022/04/11 06:46:40;;;;;;;10.20;5.50;;;;;;;6.12;66.04;100815.98;111542;1242;21965;-81
2022/04/11 06:49:16;;;;;;;8.80;5.80;;;;;;;6.20;66.05;100816.19;111408;1245;21964;-81
2022/04/11 06:51:44;;;;;;;16.80;14.70;;;;;;;6.25;65.68;100820.20;110508;1254;23268;-80
2022/04/11 06:54:15;;;;;;;11.00;7.10;;;;;;;6.33;65.80;100826.83;110694;1251;21966;-79
2022/04/11 06:56:43;;;;;;;8.70;5.20;;;;;;;6.40;65.49;100829.24;110572;1251;297977;-78
2022/04/11 06:59:11;;;;;;;11.10;6.90;;;;;;;6.45;65.21;100830.41;110646;1251;23049;-79
2022/04/11 07:01:42;;;;;;;11.70;7.80;;;;;;;6.50;64.94;100835.94;111084;1245;23022;-78
2022/04/11 07:04:10;;;;;;;12.30;7.60;;;;;;;6.50;64.60;100833.42;111355;1244;22028;-79
2022/04/11 07:06:38;;;;;;;9.10;6.50;;;;;;;6.48;64.27;100829.93;111326;1239;22416;-79
2022/04/11 07:09:09;;;;;;;10.30;6.20;;;;;;;6.43;64.22;100830.04;111808;1235;23577;-79
2022/04/11 07:11:39;;;;;;;12.50;7.30;;;;;;;6.39;64.22;100835.30;112189;1235;21968;-79
2022/04/11 07:14:11;;;;;;;10.50;6.60;;;;;;;6.36;64.41;100834.64;112257;1235;22281;-77
2022/04/11 07:16:41;;;;;;;12.40;6.90;;;;;;;6.37;64.49;100838.96;113100;1235;23582;-78
2022/04/11 07:19:09;;;;;;;10.00;5.70;;;;;;;6.43;64.54;100837.73;112524;1234;22013;-78
2022/04/11 07:21:41;;;;;;;8.80;5.60;;;;;;;6.58;65.30;100831.05;112987;1235;21894;-79
2022/04/11 07:24:09;;;;;;;12.10;6.20;;;;;;;6.92;66.07;100828.98;112254;1240;22861;-79
2022/04/11 07:26:37;;;;;;;9.20;5.60;;;;;;;7.24;65.45;100827.27;112052;1239;22851;-79
2022/04/11 07:29:06;;;;;;;12.00;5.50;;;;;;;7.56;65.24;100827.60;112142;1241;23132;-78
2022/04/11 07:31:34;;;;;;;12.80;6.90;;;;;;;7.89;65.05;100830.54;112144;1241;22726;-79
2022/04/11 07:34:02;;;;;;;20.40;7.40;;;;;;;8.14;63.66;100830.10;112188;1240;21952;-80
2022/04/11 07:36:30;;;;;;;12.30;5.70;;;;;;;8.19;61.87;100832.08;112145;1241;21969;-79
2022/04/11 07:38:58;;;;;;;9.10;6.00;;;;;;;8.09;60.80;100832.27;112098;1242;21954;-79
2022/04/11 07:41:29;;;;;;;19.60;14.50;;;;;;;7.97;60.54;100836.01;112387;1238;22472;-79
2022/04/11 07:43:58;;;;;;;11.60;8.30;;;;;;;7.88;60.37;100837.84;112591;1235;22390;-79
2022/04/11 07:46:26;;;;;;;8.60;6.50;;;;;;;7.75;60.26;100836.42;111892;1240;22132;-78
2022/04/11 07:48:54;;;;;;;10.00;6.40;;;;;;;7.73;60.88;100840.08;111993;1238;22948;-77
2022/04/11 07:51:22;;;;;;;8.50;5.50;;;;;;;7.79;61.10;100839.94;111466;1247;23795;-83
2022/04/11 07:53:53;;;;;;;20.70;13.20;;;;;;;7.85;61.16;100837.41;111258;1247;22037;-79
2022/04/11 07:56:23;;;;;;;18.20;12.50;;;;;;;7.90;60.82;100839.61;111349;1246;22399;-80
2022/04/11 07:58:50;;;;;;;11.00;7.30;;;;;;;7.90;60.45;100843.48;111702;1247;22014;-78
2022/04/11 08:01:24;;;;;;;22.30;10.80;;;;;;;7.85;59.95;100841.69;111339;1247;21965;-78
2022/04/11 08:03:52;;;;;;;10.60;6.50;;;;;;;7.73;59.55;100842.17;111826;1244;22248;-79
2022/04/11 08:06:22;;;;;;;10.90;6.50;;;;;;;7.63;59.57;100847.13;111990;1241;21964;-79
2022/04/11 08:08:50;;;;;;;9.70;6.00;;;;;;;7.50;59.50;100849.30;112066;1235;21947;-80
2022/04/11 08:11:19;;;;;;;11.60;5.90;;;;;;;7.38;59.79;100844.74;112123;1235;23645;-78
2022/04/11 08:13:50;;;;;;;13.90;6.50;;;;;;;7.35;60.54;100841.23;112667;1234;22049;-79
2022/04/11 08:16:18;;;;;;;12.60;7.10;;;;;;;7.48;61.46;100841.75;113223;1234;21914;-79
2022/04/11 08:18:46;;;;;;;10.50;5.30;;;;;;;7.79;62.79;100849.92;112753;1234;21959;-79
2022/04/11 08:21:14;;;;;;;6.60;3.90;;;;;;;8.34;63.63;100854.18;112518;1234;21950;-80
2022/04/11 08:23:42;;;;;;;9.50;4.60;;;;;;;8.98;63.13;100852.47;112572;1235;23631;-78
2022/04/11 08:26:10;;;;;;;8.40;4.80;;;;;;;9.30;60.38;100859.95;112394;1235;23005;-79
2022/04/11 08:28:38;;;;;;;9.10;4.80;;;;;;;9.41;58.54;100858.40;112405;1235;23710;-78
2022/04/11 08:31:05;;;;;;;14.40;5.40;;;;;;;9.37;56.99;100857.92;112515;1235;23756;-78
2022/04/11 08:33:33;;;;;;;8.00;4.60;;;;;;;9.26;56.54;100862.84;112489;1235;21948;-79
2022/04/11 08:36:02;;;;;;;7.50;4.40;;;;;;;9.19;56.45;100859.12;113164;1235;23804;-79
2022/04/11 08:38:30;;;;;;;8.90;4.90;;;;;;;9.14;56.32;100862.95;112486;1235;23681;-79
2022/04/11 08:41:02;;;;;;;10.90;6.20;;;;;;;9.11;56.45;100865.13;112508;1235;21942;-80
2022/04/11 08:43:32;;;;;;;10.30;5.20;;;;;;;9.13;56.56;100864.06;112632;1234;23005;-80
2022/04/11 08:46:04;;;;;;;9.70;4.10;;;;;;;9.21;56.69;100861.23;112640;1235;23801;-78
2022/04/11 08:48:33;;;;;;;8.10;4.40;;;;;;;9.24;55.88;100857.57;112662;1235;22981;-79
2022/04/11 08:51:03;;;;;;;10.40;5.00;;;;;;;9.13;55.07;100855.83;112679;1234;23581;-79
2022/04/11 08:53:32;;;;;;;11.80;5.20;;;;;;;8.99;55.21;100858.02;112610;1235;23007;-79
2022/04/11 08:56:00;;;;;;;11.50;6.30;;;;;;;8.93;55.40;100855.70;112972;1235;23651;-79
2022/04/11 08:58:28;;;;;;;8.70;6.40;;;;;;;8.93;55.64;100855.44;112529;1235;22813;-80
2022/04/11 09:00:56;;;;;;;14.20;7.30;;;;;;;8.94;55.65;100856.34;112706;1235;21949;-80
2022/04/11 09:03:25;;;;;;;7.70;5.40;;;;;;;8.94;55.55;100857.23;112853;1235;21943;-78
2022/04/11 09:06:08;;;;;;;8.70;6.40;;;;;;;8.91;55.10;100857.89;112342;1235;21957;-78
2022/04/11 09:08:55;;;;;;;19.60;11.00;;;;;;;9.01;55.87;100856.98;113067;1235;21954;-80
2022/04/11 09:11:37;;;;;;;12.50;9.10;;;;;;;9.17;55.56;100856.33;112975;1235;21922;-79
2022/04/11 09:14:07;;;;;;;10.90;6.20;;;;;;;9.24;54.96;100856.02;112744;1233;23572;-81
2022/04/11 09:16:52;;;;;;;9.30;5.20;;;;;;;9.20;54.09;100858.35;112932;1235;21960;-79
2022/04/11 09:19:25;;;;;;;9.60;4.70;;;;;;;9.03;53.56;100863.58;112641;1235;23028;-80
2022/04/11 09:22:29;;;;;;;7.30;5.20;;;;;;;8.83;53.49;100866.34;112725;1235;21921;-80
2022/04/11 09:25:19;;;;;;;11.00;5.50;;;;;;;8.68;53.81;100868.86;112143;1241;21974;-80
2022/04/11 09:28:02;;;;;;;12.90;6.20;;;;;;;8.62;54.01;100867.45;112250;1238;21976;-81
2022/04/11 09:30:33;;;;;;;7.60;4.50;;;;;;;8.56;54.25;100864.15;112342;1241;22746;-79
2022/04/11 09:33:08;;;;;;;6.60;5.40;;;;;;;8.55;54.58;100859.16;112129;1238;22283;-80
2022/04/11 09:35:40;;;;;;;6.40;5.00;;;;;;;8.58;54.79;100861.52;112149;1238;22095;-80
2022/04/11 09:38:21;;;;;;;9.00;5.60;;;;;;;8.59;54.37;100866.49;112088;1238;21975;-79
2022/04/11 09:40:53;;;;;;;9.00;5.30;;;;;;;8.55;54.31;100870.19;111851;1244;22977;-80
2022/04/11 09:43:29;;;;;;;8.70;4.30;;;;;;;8.55;54.21;100868.50;111972;1241;21951;-79
2022/04/11 09:46:00;;;;;;;28.30;8.10;;;;;;;8.52;54.07;100865.73;111844;1244;22106;-80
2022/04/11 09:48:30;;;;;;;;;;;;;;;8.53;54.28;100863.35;111883;1244;22123;-78
2022/04/11 09:51:01;;;;;;;11.80;5.20;;;;;;;8.48;54.35;100867.66;111876;1244;21972;-79
2022/04/11 09:53:35;;;;;;;;;;;;;;;8.46;54.23;100866.97;111673;1244;22340;-78
2022/04/11 09:56:08;;;;;;;9.80;5.90;;;;;;;8.38;53.97;100867.21;111908;1243;23525;-79
2022/04/11 09:58:39;;;;;;;9.30;6.30;;;;;;;8.33;53.93;100863.10;111832;1243;22038;-78
2022/04/11 10:01:09;;;;;;;13.10;8.10;;;;;;;8.32;54.07;100863.33;111922;1244;23022;-80
2022/04/11 10:03:40;;;;;;;12.80;7.90;;;;;;;8.35;54.35;100864.65;111979;1237;21976;-80
2022/04/11 10:06:11;;;;;;;9.80;5.60;;;;;;;8.44;54.45;100864.86;112015;1241;21959;-80
2022/04/11 10:08:41;;;;;;;7.20;5.10;;;;;;;8.47;54.15;100862.17;112129;1241;21999;-80
2022/04/11 10:11:10;;;;;;;10.60;5.80;;;;;;;8.54;54.29;100862.44;112025;1241;21980;-80
2022/04/11 10:13:38;;;;;;;8.30;4.10;;;;;;;8.67;54.33;100859.82;112115;1241;22975;-79
2022/04/11 10:16:06;;;;;;;7.60;3.90;;;;;;;8.83;54.30;100855.44;112192;1239;21974;-80
2022/04/11 10:18:35;;;;;;;7.20;3.50;;;;;;;9.05;54.14;100852.16;112155;1240;21964;-80
2022/04/11 10:21:06;;;;;;;6.10;3.60;;;;;;;9.20;53.42;100851.98;112118;1240;21983;-80
2022/04/11 10:24:16;;;;;;;7.90;5.50;;;;;;;9.47;53.81;100854.64;112406;1235;21960;-79
2022/04/11 10:26:55;;;;;;;9.50;5.90;;;;;;;9.71;52.48;100857.63;112696;1235;21946;-78
2022/04/11 10:29:39;;;;;;;5.80;4.60;;;;;;;9.67;51.24;100854.64;112770;1235;21984;-81
2022/04/11 10:32:12;;;;;;;9.00;5.20;;;;;;;9.49;50.77;100851.44;112929;1235;21992;-82
2022/04/11 10:34:54;;;;;;;4.30;3.00;;;;;;;9.31;50.44;100848.27;112834;1235;21942;-83
2022/04/11 10:37:49;;;;;;;7.40;3.90;;;;;;;9.03;50.38;100851.54;112127;1241;21977;-81
2022/04/11 10:40:17;;;;;;;6.90;3.70;;;;;;;8.82;50.83;100850.65;111316;1247;21957;-81
2022/04/11 10:43:08;;;;;;;10.40;4.00;;;;;;;8.69;51.03;100852.19;111887;1244;21964;-81
2022/04/11 10:45:40;;;;;;;10.20;3.80;;;;;;;8.63;51.57;100852.56;111843;1244;21968;-80
2022/04/11 10:48:11;;;;;;;26.20;17.20;;;;;;;8.62;51.78;100850.21;112057;1244;22066;-81
2022/04/11 10:50:41;;;;;;;11.00;8.30;;;;;;;8.66;51.78;100848.60;111688;1245;21975;-79
2022/04/11 10:53:22;;;;;;;25.90;15.20;;;;;;;8.77;52.09;100844.95;111363;1250;22391;-82
2022/04/11 10:56:03;;;;;;;20.70;12.90;;;;;;;8.97;52.05;100847.35;111686;1244;22859;-80
2022/04/11 10:58:54;;;;;;;17.10;8.80;;;;;;;9.02;51.02;100848.48;111460;1245;23696;-81
2022/04/11 11:01:43;;;;;;;19.60;10.50;;;;;;;8.95;50.51;100845.56;111664;1244;23770;-81
2022/04/11 11:04:21;;;;;;;7.70;4.90;;;;;;;8.89;50.46;100856.52;111294;1247;21960;-82
2022/04/11 11:07:29;;;;;;;8.10;5.20;;;;;;;8.78;50.33;100858.38;110995;1253;22161;-84
2022/04/11 11:10:00;;;;;;;6.80;5.10;;;;;;;8.63;50.69;100862.44;110780;1254;21977;-79
2022/04/11 11:12:29;;;;;;;12.10;7.80;;;;;;;8.59;51.28;100862.81;111653;1249;22251;-82
2022/04/11 11:15:34;;;;;;;12.10;7.40;;;;;;;8.59;51.64;100859.68;111672;1247;23658;-82
2022/04/11 11:18:03;;;;;;;9.70;5.10;;;;;;;8.55;51.78;100859.54;111681;1247;22978;-81
2022/04/11 11:20:32;;;;;;;9.20;5.60;;;;;;;8.55;52.32;100858.45;111320;1247;21979;-80
2022/04/11 11:23:25;;;;;;;8.60;4.10;;;;;;;8.67;53.01;100856.41;111590;1247;23040;-81
2022/04/11 11:25:57;;;;;;;8.00;3.90;;;;;;;8.83;53.13;100851.95;112103;1241;21979;-81
2022/04/11 11:28:28;;;;;;;6.50;3.60;;;;;;;9.02;53.03;100849.65;112273;1235;23664;-81
2022/04/11 11:30:57;;;;;;;6.80;3.90;;;;;;;9.15;52.55;100847.93;112934;1234;21980;-81
2022/04/11 11:33:27;;;;;;;7.50;3.90;;;;;;;9.32;52.87;100836.88;112915;1235;21959;-80
2022/04/11 11:36:02;;;;;;;8.80;3.90;;;;;;;9.63;52.73;100834.10;112822;1235;21964;-81
2022/04/11 11:38:32;;;;;;;7.60;3.20;;;;;;;9.91;52.05;100832.06;112815;1235;23682;-83
2022/04/11 11:41:04;;;;;;;7.80;4.10;;;;;;;10.11;51.41;100827.47;112159;1238;22014;-80